createdAt,value
2023-02-17T00:01:22.707Z,101256.38
2023-02-17T00:03:50.845Z,101261.53
2023-02-17T00:06:21.902Z,101257.97
2023-02-17T00:08:50.095Z,101256.88
2023-02-17T00:11:17.963Z,101261.06
2023-02-17T00:13:45.240Z,101264.50
2023-02-17T00:16:25.280Z,101251.31
2023-02-17T00:18:55.453Z,101261.88
2023-02-17T00:21:24.769Z,101249.66
2023-02-17T00:23:52.604Z,101258.97
2023-02-17T00:26:20.895Z,101257.19
2023-02-17T00:28:48.703Z,101250.22
2023-02-17T00:31:23.551Z,101242.59
2023-02-17T00:33:50.664Z,101242.47
2023-02-17T00:36:19.838Z,101235.44
2023-02-17T00:38:53.629Z,101242.50
2023-02-17T00:41:21.132Z,101250.44
2023-02-17T00:43:48.753Z,101249.59
2023-02-17T00:46:17.267Z,101238.28
2023-02-17T00:48:44.220Z,101244.16
2023-02-17T00:51:12.216Z,101253.78
2023-02-17T00:53:39.278Z,101246.84
2023-02-17T00:56:07.300Z,101251.97
2023-02-17T00:58:35.392Z,101247.63
2023-02-17T01:01:02.851Z,101249.34
2023-02-17T01:03:29.711Z,101246.88
2023-02-17T01:05:56.804Z,101240.56
2023-02-17T01:08:25.546Z,101234.75
2023-02-17T01:10:53.403Z,101236.59
2023-02-17T01:13:20.668Z,101247.13
2023-02-17T01:15:50.591Z,101251.41
2023-02-17T01:18:19.144Z,101244.25
2023-02-17T01:20:46.247Z,101238.38
2023-02-17T01:23:14.089Z,101240.13
2023-02-17T01:25:44.122Z,101249.78
2023-02-17T01:28:20.332Z,101243.72
2023-02-17T01:30:48.879Z,101242.00
2023-02-17T01:33:15.755Z,101239.53
2023-02-17T01:35:42.855Z,101229.91
2023-02-17T01:38:09.822Z,101231.56
2023-02-17T01:40:49.488Z,101233.19
2023-02-17T01:43:17.778Z,101229.81
2023-02-17T01:45:53.673Z,101216.75
2023-02-17T01:48:32.366Z,101228.84
2023-02-17T01:51:05.135Z,101225.38
2023-02-17T01:53:40.587Z,101221.84
2023-02-17T01:56:08.694Z,101220.81
2023-02-17T01:58:35.634Z,101218.03
2023-02-17T02:01:05.082Z,101205.75
2023-02-17T02:03:36.311Z,101211.00
2023-02-17T02:06:11.300Z,101207.63
2023-02-17T02:09:03.951Z,101211.03
2023-02-17T02:11:33.438Z,101212.72
2023-02-17T02:14:00.876Z,101202.44
2023-02-17T02:16:36.591Z,101206.84
2023-02-17T02:19:21.422Z,101205.13
2023-02-17T02:22:26.188Z,101207.00
2023-02-17T02:25:31.108Z,101212.41
2023-02-17T02:28:33.248Z,101206.28
2023-02-17T02:31:00.010Z,101205.59
2023-02-17T02:33:43.365Z,101198.69
2023-02-17T02:36:20.607Z,101190.03
2023-02-17T02:39:02.815Z,101194.34
2023-02-17T02:41:53.569Z,101178.69
2023-02-17T02:44:21.735Z,101180.31
2023-02-17T02:47:03.998Z,101183.09
2023-02-17T02:49:33.712Z,101184.03
2023-02-17T02:52:41.796Z,101184.00
2023-02-17T02:55:26.827Z,101188.31
2023-02-17T02:58:15.333Z,101190.94
2023-02-17T03:01:14.138Z,101184.94
2023-02-17T03:03:53.776Z,101182.31
2023-02-17T03:06:33.000Z,101188.47
2023-02-17T03:09:09.151Z,101196.50
2023-02-17T03:11:40.355Z,101191.63
2023-02-17T03:14:13.218Z,101194.22
2023-02-17T03:16:42.285Z,101196.91
2023-02-17T03:19:10.139Z,101197.00
2023-02-17T03:21:48.037Z,101199.75
2023-02-17T03:24:15.052Z,101204.63
2023-02-17T03:26:42.133Z,101211.56
2023-02-17T03:29:09.335Z,101204.81
2023-02-17T03:31:36.967Z,101204.06
2023-02-17T03:34:04.094Z,101205.75
2023-02-17T03:36:31.214Z,101201.38
2023-02-17T03:38:58.853Z,101208.28
2023-02-17T03:41:27.007Z,101206.44
2023-02-17T03:43:53.833Z,101210.75
2023-02-17T03:46:22.449Z,101215.84
2023-02-17T03:48:49.260Z,101216.59
2023-02-17T03:51:18.938Z,101218.25
2023-02-17T03:53:46.230Z,101213.72
2023-02-17T03:56:14.081Z,101219.78
2023-02-17T03:58:42.081Z,101210.94
2023-02-17T04:01:11.378Z,101208.22
2023-02-17T04:03:40.755Z,101199.34
2023-02-17T04:06:09.468Z,101195.56
2023-02-17T04:08:37.130Z,101191.00
2023-02-17T04:11:07.060Z,101191.75
2023-02-17T04:13:36.965Z,101199.38
2023-02-17T04:16:05.660Z,101198.31
2023-02-17T04:18:32.950Z,101209.63
2023-02-17T04:21:00.621Z,101200.06
2023-02-17T04:23:27.766Z,101196.53
2023-02-17T04:25:54.915Z,101202.69
2023-02-17T04:28:22.317Z,101203.50
2023-02-17T04:30:52.492Z,101194.03
2023-02-17T04:33:19.425Z,101194.09
2023-02-17T04:35:47.615Z,101187.13
2023-02-17T04:38:14.445Z,101180.09
2023-02-17T04:40:41.998Z,101176.72
2023-02-17T04:43:09.234Z,101181.09
2023-02-17T04:45:37.426Z,101175.31
2023-02-17T04:48:04.710Z,101188.72
2023-02-17T04:50:31.491Z,101183.50
2023-02-17T04:53:01.166Z,101174.81
2023-02-17T04:55:29.681Z,101178.19
2023-02-17T04:57:56.886Z,101181.56
2023-02-17T05:00:23.801Z,101181.59
2023-02-17T05:02:53.559Z,101185.94
2023-02-17T05:05:21.123Z,101186.78
2023-02-17T05:07:50.524Z,101183.28
2023-02-17T05:10:18.765Z,101180.56
2023-02-17T05:12:46.848Z,101185.56
2023-02-17T05:15:13.691Z,101185.28
2023-02-17T05:17:40.884Z,101188.25
2023-02-17T05:20:08.938Z,101184.19
2023-02-17T05:22:36.088Z,101179.16
2023-02-17T05:25:03.587Z,101176.81
2023-02-17T05:27:31.075Z,101182.22
2023-02-17T05:29:57.890Z,101179.44
2023-02-17T05:32:27.878Z,101189.63
2023-02-17T05:34:55.081Z,101193.28
2023-02-17T05:37:22.490Z,101191.34
2023-02-17T05:39:49.340Z,101183.66
2023-02-17T05:42:16.398Z,101194.16
2023-02-17T05:44:44.677Z,101193.44
2023-02-17T05:47:11.705Z,101189.22
2023-02-17T05:49:41.435Z,101185.88
2023-02-17T05:52:08.565Z,101191.91
2023-02-17T05:54:35.346Z,101188.47
2023-02-17T05:57:03.855Z,101190.25
2023-02-17T05:59:31.966Z,101197.09
2023-02-17T06:02:02.177Z,101201.44
2023-02-17T06:04:29.394Z,101196.09
2023-02-17T06:06:58.759Z,101190.97
2023-02-17T06:09:29.321Z,101187.31
2023-02-17T06:11:56.995Z,101176.81
2023-02-17T06:14:23.833Z,101186.25
2023-02-17T06:16:50.933Z,101181.47
2023-02-17T06:19:17.694Z,101186.38
2023-02-17T06:21:46.229Z,101180.94
2023-02-17T06:24:12.981Z,101193.28
2023-02-17T06:26:40.039Z,101189.94
2023-02-17T06:29:09.550Z,101208.38
2023-02-17T06:31:36.770Z,101213.63
2023-02-17T06:34:06.409Z,101221.19
2023-02-17T06:36:33.858Z,101212.13
2023-02-17T06:39:03.528Z,101217.25
2023-02-17T06:41:30.917Z,101214.50
2023-02-17T06:43:57.685Z,101217.34
2023-02-17T06:46:24.872Z,101221.88
2023-02-17T06:48:51.683Z,101220.13
2023-02-17T06:51:21.593Z,101212.25
2023-02-17T06:53:48.392Z,101220.94
2023-02-17T06:56:15.440Z,101217.34
2023-02-17T06:58:42.195Z,101212.09
2023-02-17T07:01:17.268Z,101219.81
2023-02-17T07:03:44.344Z,101214.47
2023-02-17T07:06:11.417Z,101218.81
2023-02-17T07:08:39.293Z,101216.16
2023-02-17T07:11:07.916Z,101219.47
2023-02-17T07:13:35.386Z,101219.38
2023-02-17T07:16:02.654Z,101216.66
2023-02-17T07:18:29.730Z,101220.97
2023-02-17T07:20:57.313Z,101214.94
2023-02-17T07:23:24.108Z,101214.06
2023-02-17T07:25:51.190Z,101218.31
2023-02-17T07:28:18.051Z,101210.25
2023-02-17T07:30:45.434Z,101205.75
2023-02-17T07:33:12.618Z,101209.22
2023-02-17T07:35:46.537Z,101203.91
2023-02-17T07:38:13.395Z,101201.03
2023-02-17T07:40:40.981Z,101207.09
2023-02-17T07:43:10.850Z,101196.41
2023-02-17T07:45:38.194Z,101199.84
2023-02-17T07:48:07.881Z,101192.66
2023-02-17T07:50:34.970Z,101186.78
2023-02-17T07:53:01.793Z,101192.81
2023-02-17T07:55:28.898Z,101182.00
2023-02-17T07:57:59.941Z,101189.69
2023-02-17T08:00:28.091Z,101188.78
2023-02-17T08:02:55.944Z,101177.88
2023-02-17T08:05:23.062Z,101184.50
2023-02-17T08:08:09.867Z,101180.91
2023-02-17T08:10:59.788Z,101189.25
2023-02-17T08:13:27.761Z,101201.25
2023-02-17T08:15:54.901Z,101196.75
2023-02-17T08:18:21.678Z,101199.91
2023-02-17T08:20:50.440Z,101190.22
2023-02-17T08:23:17.262Z,101191.31
2023-02-17T08:25:44.586Z,101188.78
2023-02-17T08:28:12.219Z,101203.53
2023-02-17T08:30:39.675Z,101185.88
2023-02-17T08:33:07.018Z,101193.66
2023-02-17T08:35:34.071Z,101197.22
2023-02-17T08:38:00.874Z,101198.94
2023-02-17T08:40:29.090Z,101206.91
2023-02-17T08:42:55.927Z,101201.47
2023-02-17T08:45:23.966Z,101211.66
2023-02-17T08:47:51.069Z,101199.81
2023-02-17T08:50:20.016Z,101192.84
2023-02-17T08:52:47.481Z,101195.94
2023-02-17T08:55:15.215Z,101190.06
2023-02-17T08:57:42.124Z,101181.78
2023-02-17T09:00:10.936Z,101184.78
2023-02-17T09:02:37.765Z,101184.69
2023-02-17T09:05:08.165Z,101188.91
2023-02-17T09:07:35.004Z,101198.66
2023-02-17T09:10:04.800Z,101200.66
2023-02-17T09:12:31.723Z,101194.50
2023-02-17T09:14:58.831Z,101194.59
2023-02-17T09:17:26.061Z,101195.13
2023-02-17T09:19:53.279Z,101192.16
2023-02-17T09:22:31.657Z,101192.38
2023-02-17T09:24:59.596Z,101182.72
2023-02-17T09:27:26.438Z,101180.13
2023-02-17T09:29:53.498Z,101167.72
2023-02-17T09:32:21.458Z,101173.38
2023-02-17T09:34:50.090Z,101171.53
2023-02-17T09:37:17.747Z,101171.91
2023-02-17T09:39:45.996Z,101174.16
2023-02-17T09:42:20.816Z,101176.25
2023-02-17T09:44:52.710Z,101180.59
2023-02-17T09:47:25.670Z,101182.56
2023-02-17T09:50:03.677Z,101191.66
2023-02-17T09:52:40.006Z,101188.56
2023-02-17T09:55:25.079Z,101175.78
2023-02-17T09:58:14.551Z,101179.53
2023-02-17T10:01:00.511Z,101184.94
2023-02-17T10:03:39.695Z,101181.72
2023-02-17T10:06:10.138Z,101162.25
2023-02-17T10:08:54.561Z,101164.16
2023-02-17T10:11:34.912Z,101169.47
2023-02-17T10:14:25.743Z,101160.00
2023-02-17T10:16:57.373Z,101151.75
2023-02-17T10:20:20.940Z,101146.69
2023-02-17T10:22:57.925Z,101145.25
2023-02-17T10:26:06.210Z,101126.56
2023-02-17T10:28:53.567Z,101123.25
2023-02-17T10:31:46.720Z,101117.06
2023-02-17T10:34:22.949Z,101111.47
2023-02-17T10:37:38.932Z,101111.06
2023-02-17T10:40:16.264Z,101109.22
2023-02-17T10:42:43.500Z,101097.25
2023-02-17T10:45:27.519Z,101099.44
2023-02-17T10:48:01.500Z,101098.25
2023-02-17T10:50:29.012Z,101100.59
2023-02-17T10:52:56.531Z,101096.47
2023-02-17T10:55:34.049Z,101080.72
2023-02-17T10:58:31.392Z,101095.44
2023-02-17T11:00:58.788Z,101096.56
2023-02-17T11:03:28.707Z,101098.53
2023-02-17T11:06:01.821Z,101098.09
2023-02-17T11:08:39.405Z,101095.03
2023-02-17T11:11:18.960Z,101093.25
2023-02-17T11:14:07.328Z,101086.09
2023-02-17T11:16:44.454Z,101085.00
2023-02-17T11:19:28.365Z,101075.53
2023-02-17T11:21:58.494Z,101089.91
2023-02-17T11:24:27.111Z,101070.28
2023-02-17T11:27:04.131Z,101071.72
2023-02-17T11:29:33.190Z,101068.81
2023-02-17T11:32:12.334Z,101066.59
2023-02-17T11:34:41.880Z,101057.09
2023-02-17T11:37:11.663Z,101043.88
2023-02-17T11:39:42.012Z,101053.41
2023-02-17T11:42:30.622Z,101049.84
2023-02-17T11:45:00.372Z,101043.66
2023-02-17T11:47:48.055Z,101034.72
2023-02-17T11:50:41.771Z,101038.22
2023-02-17T11:53:09.093Z,101037.91
2023-02-17T11:56:01.729Z,101033.47
2023-02-17T11:58:54.265Z,101019.28
2023-02-17T12:01:30.152Z,101027.41
2023-02-17T12:04:25.105Z,101023.28
2023-02-17T12:07:01.073Z,101018.38
2023-02-17T12:09:51.074Z,101027.13
2023-02-17T12:12:23.843Z,101022.72
2023-02-17T12:15:08.493Z,101014.50
2023-02-17T12:17:44.957Z,101002.25
2023-02-17T12:20:18.140Z,100993.94
2023-02-17T12:22:51.149Z,101004.78
2023-02-17T12:25:37.864Z,100995.06
2023-02-17T12:28:39.744Z,100988.03
2023-02-17T12:31:16.575Z,100985.47
2023-02-17T12:33:47.866Z,100985.31
2023-02-17T12:36:18.492Z,100977.84
2023-02-17T12:38:46.843Z,100988.50
2023-02-17T12:41:40.472Z,100979.06
2023-02-17T12:44:14.514Z,100990.56
2023-02-17T12:46:44.607Z,100981.44
2023-02-17T12:49:31.496Z,100994.25
2023-02-17T12:52:08.954Z,100990.72
2023-02-17T12:54:43.600Z,100996.53
2023-02-17T12:57:10.662Z,100991.78
2023-02-17T12:59:43.798Z,100978.06
2023-02-17T13:02:14.063Z,100983.66
2023-02-17T13:04:43.434Z,100976.28
2023-02-17T13:07:27.333Z,100974.50
2023-02-17T13:09:56.441Z,100971.31
2023-02-17T13:12:23.461Z,100983.72
2023-02-17T13:15:02.338Z,100981.00
2023-02-17T13:17:34.112Z,100982.28
2023-02-17T13:20:07.093Z,100978.84
2023-02-17T13:22:34.561Z,100981.84
2023-02-17T13:25:01.501Z,100983.84
2023-02-17T13:27:28.537Z,100978.13
2023-02-17T13:30:07.305Z,100982.72
2023-02-17T13:32:36.661Z,100988.41
2023-02-17T13:35:11.842Z,100988.78
2023-02-17T13:37:44.027Z,100981.72
2023-02-17T13:40:19.770Z,100978.25
2023-02-17T13:42:49.055Z,100975.78
2023-02-17T13:45:29.759Z,100972.66
2023-02-17T13:48:15.637Z,100968.28
2023-02-17T13:50:51.709Z,100959.78
2023-02-17T13:53:40.162Z,100956.78
2023-02-17T13:56:11.641Z,100951.44
2023-02-17T13:58:42.093Z,100952.81
2023-02-17T14:01:16.604Z,100946.06
2023-02-17T14:03:50.863Z,100950.31
2023-02-17T14:06:37.764Z,100941.94
2023-02-17T14:09:23.059Z,100937.50
2023-02-17T14:11:51.919Z,100935.16
2023-02-17T14:14:20.810Z,100930.22
2023-02-17T14:17:01.211Z,100932.69
2023-02-17T14:19:30.200Z,100930.72
2023-02-17T14:22:04.217Z,100928.25
2023-02-17T14:24:36.851Z,100924.16
2023-02-17T14:27:08.219Z,100922.03
2023-02-17T14:29:46.647Z,100916.66
2023-02-17T14:32:33.101Z,100916.13
2023-02-17T14:35:28.770Z,100917.09
2023-02-17T14:37:55.664Z,100913.81
2023-02-17T14:40:25.226Z,100927.56
2023-02-17T14:42:52.354Z,100918.22
2023-02-17T14:45:19.658Z,100911.38
2023-02-17T14:47:47.220Z,100919.97
2023-02-17T14:50:16.211Z,100919.72
2023-02-17T14:52:47.089Z,100916.47
2023-02-17T14:55:22.176Z,100916.81
2023-02-17T14:57:49.058Z,100912.78
2023-02-17T15:00:16.529Z,100909.28
2023-02-17T15:02:43.365Z,100906.91
2023-02-17T15:05:10.716Z,100906.34
2023-02-17T15:07:37.974Z,100900.78
2023-02-17T15:10:31.262Z,100898.59
2023-02-17T15:13:01.095Z,100894.56
2023-02-17T15:15:28.251Z,100889.06
2023-02-17T15:17:55.393Z,100891.06
2023-02-17T15:20:22.521Z,100885.81
2023-02-17T15:22:52.821Z,100888.53
2023-02-17T15:25:24.962Z,100876.81
2023-02-17T15:27:55.294Z,100881.50
2023-02-17T15:30:22.952Z,100870.06
2023-02-17T15:32:49.948Z,100871.63
2023-02-17T15:35:20.730Z,100871.78
2023-02-17T15:37:48.090Z,100869.91
2023-02-17T15:40:18.258Z,100870.63
2023-02-17T15:42:47.217Z,100870.75
2023-02-17T15:45:18.372Z,100867.91
2023-02-17T15:47:46.949Z,100868.03
2023-02-17T15:50:20.695Z,100875.28
2023-02-17T15:52:47.818Z,100883.28
2023-02-17T15:55:15.606Z,100892.03
2023-02-17T15:57:51.038Z,100877.19
2023-02-17T16:00:32.404Z,100883.41
2023-02-17T16:03:04.647Z,100869.38
2023-02-17T16:05:34.234Z,100869.81
2023-02-17T16:08:01.091Z,100874.88
2023-02-17T16:10:28.729Z,100876.34
2023-02-17T16:12:58.239Z,100865.97
2023-02-17T16:15:27.426Z,100873.09
2023-02-17T16:17:55.764Z,100862.44
2023-02-17T16:20:34.630Z,100856.50
2023-02-17T16:23:02.383Z,100863.06
2023-02-17T16:25:30.139Z,100857.88
2023-02-17T16:27:57.371Z,100860.84
2023-02-17T16:30:32.062Z,100854.88
2023-02-17T16:32:59.698Z,100855.56
2023-02-17T16:35:33.651Z,100855.97
2023-02-17T16:38:05.290Z,100846.00
2023-02-17T16:40:34.753Z,100848.78
2023-02-17T16:43:02.046Z,100850.81
2023-02-17T16:45:34.060Z,100849.34
2023-02-17T16:48:01.898Z,100840.28
2023-02-17T16:50:36.089Z,100838.56
2023-02-17T16:53:06.126Z,100839.25
2023-02-17T16:55:36.057Z,100847.53
2023-02-17T16:58:07.141Z,100847.91
2023-02-17T17:00:34.262Z,100841.72
2023-02-17T17:03:01.033Z,100829.72
2023-02-17T17:05:29.583Z,100833.69
2023-02-17T17:08:02.789Z,100823.50
2023-02-17T17:10:31.757Z,100819.09
2023-02-17T17:12:58.820Z,100822.72
2023-02-17T17:15:26.675Z,100820.41
2023-02-17T17:17:57.679Z,100815.97
2023-02-17T17:20:35.314Z,100821.16
2023-02-17T17:23:11.720Z,100811.84
2023-02-17T17:25:41.547Z,100808.84
2023-02-17T17:28:12.496Z,100793.50
2023-02-17T17:30:41.721Z,100802.94
2023-02-17T17:33:08.843Z,100798.38
2023-02-17T17:35:37.924Z,100813.66
2023-02-17T17:38:09.630Z,100810.19
2023-02-17T17:40:48.352Z,100798.16
2023-02-17T17:43:20.482Z,100807.78
2023-02-17T17:45:50.364Z,100802.56
2023-02-17T17:48:17.869Z,100811.31
2023-02-17T17:50:49.802Z,100807.31
2023-02-17T17:53:16.688Z,100805.69
2023-02-17T17:55:43.857Z,100797.09
2023-02-17T17:58:10.654Z,100804.66
2023-02-17T18:00:37.775Z,100806.69
2023-02-17T18:03:05.141Z,100800.94
2023-02-17T18:05:32.921Z,100795.44
2023-02-17T18:08:00.749Z,100780.31
2023-02-17T18:10:27.999Z,100783.34
2023-02-17T18:12:56.327Z,100783.81
2023-02-17T18:15:23.429Z,100795.91
2023-02-17T18:17:51.444Z,100771.78
2023-02-17T18:20:19.014Z,100781.00
2023-02-17T18:22:45.819Z,100780.78
2023-02-17T18:25:12.958Z,100789.09
2023-02-17T18:27:45.298Z,100781.47
2023-02-17T18:30:16.207Z,100786.66
2023-02-17T18:32:44.225Z,100775.19
2023-02-17T18:35:12.309Z,100780.06
2023-02-17T18:37:41.070Z,100783.91
2023-02-17T18:40:16.074Z,100785.81
2023-02-17T18:42:48.186Z,100765.59
2023-02-17T18:45:18.377Z,100765.66
2023-02-17T18:47:46.280Z,100757.41
2023-02-17T18:50:15.810Z,100763.44
2023-02-17T18:52:45.053Z,100753.56
2023-02-17T18:55:13.918Z,100753.91
2023-02-17T18:57:44.333Z,100756.28
2023-02-17T19:00:15.520Z,100744.19
2023-02-17T19:02:43.744Z,100744.50
2023-02-17T19:05:11.756Z,100747.31
2023-02-17T19:07:38.573Z,100749.72
2023-02-17T19:10:06.715Z,100745.06
2023-02-17T19:12:34.313Z,100744.06
2023-02-17T19:15:01.505Z,100739.31
2023-02-17T19:17:28.481Z,100735.44
2023-02-17T19:19:55.812Z,100730.41
2023-02-17T19:22:22.650Z,100730.91
2023-02-17T19:24:54.859Z,100727.47
2023-02-17T19:27:21.739Z,100735.00
2023-02-17T19:29:48.847Z,100743.13
2023-02-17T19:32:15.897Z,100738.31
2023-02-17T19:34:43.028Z,100724.69
2023-02-17T19:37:09.926Z,100735.22
2023-02-17T19:39:37.015Z,100733.66
2023-02-17T19:42:04.460Z,100737.94
2023-02-17T19:44:32.161Z,100741.81
2023-02-17T19:47:01.868Z,100720.88
2023-02-17T19:49:28.961Z,100718.19
2023-02-17T19:51:55.930Z,100722.28
2023-02-17T19:54:24.336Z,100715.53
2023-02-17T19:56:52.040Z,100710.50
2023-02-17T19:59:19.449Z,100705.44
2023-02-17T20:01:46.331Z,100700.53
2023-02-17T20:04:13.517Z,100699.09
2023-02-17T20:06:44.158Z,100685.41
2023-02-17T20:09:18.426Z,100676.97
2023-02-17T20:11:46.218Z,100668.28
2023-02-17T20:14:13.692Z,100662.47
2023-02-17T20:16:41.233Z,100649.94
2023-02-17T20:19:08.456Z,100647.28
2023-02-17T20:21:38.689Z,100647.06
2023-02-17T20:24:06.236Z,100643.97
2023-02-17T20:26:38.351Z,100639.88
2023-02-17T20:29:05.479Z,100634.19
2023-02-17T20:31:32.451Z,100626.59
2023-02-17T20:34:02.966Z,100626.94
2023-02-17T20:36:29.812Z,100618.78
2023-02-17T20:38:56.900Z,100608.25
2023-02-17T20:41:24.164Z,100612.81
2023-02-17T20:43:52.132Z,100612.34
2023-02-17T20:46:29.504Z,100608.22
2023-02-17T20:48:56.803Z,100605.97
2023-02-17T20:51:23.858Z,100609.25
2023-02-17T20:53:51.353Z,100598.63
2023-02-17T20:56:24.420Z,100595.91
2023-02-17T20:58:52.355Z,100589.03
2023-02-17T21:01:19.837Z,100594.84
2023-02-17T21:03:47.231Z,100596.88
2023-02-17T21:06:24.401Z,100607.25
2023-02-17T21:08:54.335Z,100610.28
2023-02-17T21:11:21.659Z,100616.78
2023-02-17T21:13:50.037Z,100615.78
2023-02-17T21:16:20.071Z,100626.31
2023-02-17T21:18:47.516Z,100617.00
2023-02-17T21:21:15.353Z,100624.91
2023-02-17T21:23:42.527Z,100621.09
2023-02-17T21:26:11.453Z,100618.69
2023-02-17T21:28:38.866Z,100629.09
2023-02-17T21:31:06.389Z,100632.34
2023-02-17T21:33:33.848Z,100641.00
2023-02-17T21:36:05.702Z,100648.38
2023-02-17T21:38:32.862Z,100656.34
2023-02-17T21:41:06.031Z,100648.38
2023-02-17T21:43:52.106Z,100651.09
2023-02-17T21:46:19.205Z,100650.56
2023-02-17T21:48:46.261Z,100656.50
2023-02-17T21:51:13.171Z,100658.75
2023-02-17T21:53:40.586Z,100655.22
2023-02-17T21:56:08.247Z,100647.44
2023-02-17T21:58:35.747Z,100655.38
2023-02-17T22:01:02.728Z,100652.94
2023-02-17T22:03:29.825Z,100654.22
2023-02-17T22:05:57.401Z,100654.66
2023-02-17T22:08:24.653Z,100654.75
2023-02-17T22:10:51.643Z,100647.91
2023-02-17T22:13:18.763Z,100654.66
2023-02-17T22:15:45.562Z,100655.31
2023-02-17T22:18:12.682Z,100648.16
2023-02-17T22:20:43.998Z,100651.06
2023-02-17T22:23:11.133Z,100638.00
2023-02-17T22:25:41.590Z,100632.16
2023-02-17T22:28:10.567Z,100629.88
2023-02-17T22:30:38.048Z,100642.03
2023-02-17T22:33:05.160Z,100636.06
2023-02-17T22:35:31.997Z,100641.19
2023-02-17T22:37:59.733Z,100642.13
2023-02-17T22:40:26.873Z,100645.16
2023-02-17T22:42:54.005Z,100645.66
2023-02-17T22:45:20.757Z,100641.56
2023-02-17T22:47:47.818Z,100651.78
2023-02-17T22:50:14.707Z,100653.13
2023-02-17T22:52:41.816Z,100643.88
2023-02-17T22:55:08.683Z,100640.56
2023-02-17T22:57:35.785Z,100643.63
2023-02-17T23:00:02.602Z,100639.03
2023-02-17T23:02:29.673Z,100629.19
2023-02-17T23:04:56.786Z,100637.97
2023-02-17T23:07:26.673Z,100636.16
2023-02-17T23:09:53.474Z,100611.09
2023-02-17T23:12:20.814Z,100623.38
2023-02-17T23:14:47.596Z,100604.84
2023-02-17T23:17:15.588Z,100616.19
2023-02-17T23:19:42.534Z,100613.34
2023-02-17T23:22:16.287Z,100607.97
2023-02-17T23:24:44.854Z,100604.44
2023-02-17T23:27:12.867Z,100601.91
2023-02-17T23:29:41.015Z,100612.75
2023-02-17T23:32:08.164Z,100609.53
2023-02-17T23:34:35.245Z,100613.16
2023-02-17T23:37:02.373Z,100600.03
2023-02-17T23:39:29.165Z,100596.59
2023-02-17T23:41:56.365Z,100603.59
2023-02-17T23:44:23.245Z,100597.38
2023-02-17T23:46:50.285Z,100606.34
2023-02-17T23:49:17.854Z,100600.38
2023-02-17T23:51:46.916Z,100594.97
2023-02-17T23:54:14.352Z,100605.44
2023-02-17T23:56:41.604Z,100597.97
2023-02-17T23:59:08.598Z,100590.22
